createdAt,value
2019-02-15T00:02:03.652Z,14.78
2019-02-15T00:04:33.670Z,14.83
2019-02-15T00:07:03.827Z,14.23
2019-02-15T00:09:33.779Z,10.55
2019-02-15T00:12:03.829Z,9.13
2019-02-15T00:14:48.529Z,10.98
2019-02-15T00:17:38.665Z,10.63
2019-02-15T00:20:13.403Z,9.18
2019-02-15T00:22:43.355Z,11.78
2019-02-15T00:25:13.374Z,13.05
2019-02-15T00:27:43.312Z,14.18
2019-02-15T00:30:15.066Z,11.60
2019-02-15T00:32:45.049Z,11.85
2019-02-15T00:35:15.296Z,8.48
2019-02-15T00:37:46.228Z,15.55
2019-02-15T00:40:16.170Z,14.38
2019-02-15T00:42:46.222Z,9.18
2019-02-15T00:45:20.097Z,12.50
2019-02-15T00:47:58.139Z,9.03
2019-02-15T00:50:50.229Z,13.93
2019-02-15T00:53:38.153Z,13.28
2019-02-15T00:56:24.426Z,12.53
2019-02-15T00:59:12.288Z,10.82
2019-02-15T01:02:08.809Z,17.82
2019-02-15T01:04:57.669Z,8.23
2019-02-15T01:07:50.992Z,11.97
2019-02-15T01:10:55.284Z,9.70
2019-02-15T01:13:31.175Z,12.25
2019-02-15T01:15:59.713Z,11.73
2019-02-15T01:18:30.246Z,10.38
2019-02-15T01:21:03.313Z,9.88
2019-02-15T01:23:33.435Z,8.88
2019-02-15T01:26:34.709Z,10.32
2019-02-15T01:29:31.312Z,14.07
2019-02-15T01:32:19.131Z,13.28
2019-02-15T01:34:55.931Z,15.90
2019-02-15T01:37:47.915Z,15.00
2019-02-15T01:40:37.845Z,13.90
2019-02-15T01:43:27.060Z,19.67
2019-02-15T01:46:06.156Z,14.95
2019-02-15T01:48:38.586Z,15.40
2019-02-15T01:51:09.170Z,9.63
2019-02-15T01:53:39.673Z,11.63
2019-02-15T01:56:09.785Z,10.85
2019-02-15T01:58:40.253Z,11.85
2019-02-15T02:01:10.394Z,11.97
2019-02-15T02:03:41.356Z,11.18
2019-02-15T02:06:11.525Z,15.48
2019-02-15T02:08:41.690Z,14.40
2019-02-15T02:11:12.296Z,10.95
2019-02-15T02:13:49.244Z,12.88
2019-02-15T02:16:14.899Z,8.30
2019-02-15T02:18:46.170Z,12.05
2019-02-15T02:21:16.631Z,10.85
2019-02-15T02:23:46.803Z,14.68
2019-02-15T02:26:21.269Z,9.45
2019-02-15T02:28:53.722Z,12.70
2019-02-15T02:31:23.913Z,12.63
2019-02-15T02:33:54.025Z,15.53
2019-02-15T02:36:47.100Z,9.35
2019-02-15T02:39:17.286Z,15.20
2019-02-15T02:41:47.439Z,11.30
2019-02-15T02:44:19.068Z,13.68
2019-02-15T02:46:49.594Z,15.63
2019-02-15T02:49:20.023Z,10.03
2019-02-15T02:51:50.129Z,10.58
2019-02-15T02:54:24.267Z,10.20
2019-02-15T02:56:55.037Z,11.08
2019-02-15T02:59:25.192Z,12.13
2019-02-15T03:01:55.620Z,14.03
2019-02-15T03:04:25.982Z,11.53
2019-02-15T03:06:56.088Z,11.55
2019-02-15T03:09:28.261Z,13.68
2019-02-15T03:11:58.403Z,10.55
2019-02-15T03:14:28.719Z,16.37
2019-02-15T03:16:58.852Z,10.53
2019-02-15T03:19:28.991Z,11.43
2019-02-15T03:21:59.106Z,11.25
2019-02-15T03:24:29.377Z,11.45
2019-02-15T03:27:00.889Z,9.45
2019-02-15T03:29:31.040Z,10.20
2019-02-15T03:32:01.159Z,11.45
2019-02-15T03:34:31.313Z,11.60
2019-02-15T03:37:08.755Z,13.10
2019-02-15T03:39:48.746Z,9.85
2019-02-15T03:42:19.847Z,15.32
2019-02-15T03:44:50.009Z,12.93
2019-02-15T03:47:25.948Z,14.43
2019-02-15T03:49:56.039Z,17.62
2019-02-15T03:52:26.187Z,12.50
2019-02-15T03:54:56.286Z,13.75
2019-02-15T03:57:26.954Z,16.30
2019-02-15T03:59:59.589Z,12.53
2019-02-15T04:02:29.782Z,10.32
2019-02-15T04:04:59.992Z,10.35
2019-02-15T04:07:31.004Z,12.45
2019-02-15T04:10:01.206Z,11.40
2019-02-15T04:12:32.328Z,14.07
2019-02-15T04:15:02.630Z,15.20
2019-02-15T04:17:33.138Z,12.88
2019-02-15T04:20:03.351Z,10.38
2019-02-15T04:22:33.499Z,12.68
2019-02-15T04:25:03.795Z,12.23
2019-02-15T04:27:33.974Z,10.40
2019-02-15T04:30:04.161Z,13.03
2019-02-15T04:32:36.228Z,13.30
2019-02-15T04:35:06.629Z,14.13
2019-02-15T04:37:36.784Z,13.15
2019-02-15T04:40:07.943Z,17.42
2019-02-15T04:42:38.113Z,13.70
2019-02-15T04:45:09.396Z,14.35
2019-02-15T04:47:40.412Z,11.55
2019-02-15T04:50:10.606Z,13.08
2019-02-15T04:52:40.904Z,10.93
2019-02-15T04:55:12.177Z,12.95
2019-02-15T04:57:43.695Z,13.28
2019-02-15T05:00:13.970Z,17.20
2019-02-15T05:02:44.141Z,11.05
2019-02-15T05:05:14.499Z,14.85
2019-02-15T05:07:46.176Z,17.82
2019-02-15T05:10:18.617Z,15.05
2019-02-15T05:12:48.735Z,12.80
2019-02-15T05:15:18.845Z,12.88
2019-02-15T05:17:49.358Z,20.17
2019-02-15T05:20:19.575Z,13.25
2019-02-15T05:22:50.221Z,16.87
2019-02-15T05:25:20.396Z,19.00
2019-02-15T05:27:50.889Z,15.32
2019-02-15T05:30:21.052Z,16.12
2019-02-15T05:32:51.157Z,12.70
2019-02-15T05:35:21.494Z,14.23
2019-02-15T05:37:51.594Z,14.43
2019-02-15T05:40:21.719Z,13.00
2019-02-15T05:42:51.830Z,16.52
2019-02-15T05:45:22.277Z,19.67
2019-02-15T05:47:52.411Z,14.60
2019-02-15T05:50:22.568Z,13.40
2019-02-15T05:52:53.274Z,11.70
2019-02-15T05:55:24.210Z,19.05
2019-02-15T05:57:59.167Z,14.00
2019-02-15T06:00:36.870Z,17.17
2019-02-15T06:03:03.367Z,19.12
2019-02-15T06:05:33.515Z,17.12
2019-02-15T06:08:03.908Z,13.22
2019-02-15T06:10:34.071Z,13.93
2019-02-15T06:13:06.227Z,15.83
2019-02-15T06:15:36.512Z,17.00
2019-02-15T06:18:06.696Z,16.45
2019-02-15T06:20:36.805Z,13.15
2019-02-15T06:23:09.333Z,15.20
2019-02-15T06:25:39.455Z,13.43
2019-02-15T06:28:12.340Z,17.20
2019-02-15T06:30:45.607Z,13.50
2019-02-15T06:33:16.213Z,14.73
2019-02-15T06:35:49.055Z,14.30
2019-02-15T06:38:19.244Z,17.57
2019-02-15T06:40:49.381Z,14.90
2019-02-15T06:43:21.881Z,13.80
2019-02-15T06:45:52.069Z,15.53
2019-02-15T06:48:22.285Z,24.43
2019-02-15T06:50:52.443Z,15.03
2019-02-15T06:53:22.670Z,15.85
2019-02-15T06:55:53.175Z,14.83
2019-02-15T06:58:23.334Z,16.35
2019-02-15T07:01:13.775Z,14.43
2019-02-15T07:04:01.635Z,16.12
2019-02-15T07:06:31.827Z,14.05
2019-02-15T07:09:03.155Z,15.45
2019-02-15T07:11:33.275Z,15.18
2019-02-15T07:14:03.539Z,13.93
2019-02-15T07:16:34.083Z,18.77
2019-02-15T07:19:04.240Z,16.90
2019-02-15T07:21:34.420Z,17.32
2019-02-15T07:24:06.072Z,17.67
2019-02-15T07:26:36.391Z,14.70
2019-02-15T07:29:06.588Z,18.55
2019-02-15T07:31:36.742Z,16.65
2019-02-15T07:34:06.952Z,14.38
2019-02-15T07:36:37.109Z,14.15
2019-02-15T07:39:07.338Z,15.35
2019-02-15T07:41:37.485Z,15.53
2019-02-15T07:44:07.652Z,14.98
2019-02-15T07:46:37.803Z,25.23
2019-02-15T07:49:08.002Z,22.90
2019-02-15T07:51:39.128Z,16.57
2019-02-15T07:54:09.352Z,16.25
2019-02-15T07:56:39.722Z,23.40
2019-02-15T07:59:10.180Z,20.57
2019-02-15T08:01:42.003Z,14.28
2019-02-15T08:04:12.278Z,21.07
2019-02-15T08:06:42.422Z,20.80
2019-02-15T08:09:12.577Z,20.40
2019-02-15T08:11:42.703Z,17.55
2019-02-15T08:14:15.467Z,24.30
2019-02-15T08:16:46.975Z,20.52
2019-02-15T08:19:18.156Z,28.62
2019-02-15T08:21:48.702Z,25.27
2019-02-15T08:24:20.027Z,23.45
2019-02-15T08:26:50.536Z,23.05
2019-02-15T08:29:23.523Z,17.40
2019-02-15T08:31:53.629Z,24.40
2019-02-15T08:34:23.822Z,18.55
2019-02-15T08:36:53.957Z,18.87
2019-02-15T08:39:25.595Z,16.85
2019-02-15T08:42:01.368Z,20.97
2019-02-15T08:44:28.791Z,21.80
2019-02-15T08:46:59.067Z,23.38
2019-02-15T08:49:29.559Z,22.98
2019-02-15T08:52:02.047Z,20.43
2019-02-15T08:54:32.239Z,24.80
2019-02-15T08:57:02.363Z,24.45
2019-02-15T08:59:34.823Z,21.52
2019-02-15T09:02:11.493Z,20.75
2019-02-15T09:04:42.907Z,22.02
2019-02-15T09:07:15.628Z,21.70
2019-02-15T09:09:45.975Z,19.30
2019-02-15T09:12:17.758Z,16.57
2019-02-15T09:14:49.625Z,16.57
2019-02-15T09:17:21.263Z,18.70
2019-02-15T09:19:51.401Z,16.65
2019-02-15T09:22:21.566Z,23.25
2019-02-15T09:24:51.994Z,23.52
2019-02-15T09:27:33.419Z,18.52
2019-02-15T09:30:03.551Z,18.55
2019-02-15T09:32:33.703Z,16.30
2019-02-15T09:35:03.900Z,19.17
2019-02-15T09:37:34.059Z,23.12
2019-02-15T09:40:04.194Z,18.98
2019-02-15T09:42:36.378Z,16.93
2019-02-15T09:45:08.883Z,10.05
2019-02-15T09:47:39.207Z,11.45
2019-02-15T09:50:10.208Z,7.95
2019-02-15T09:52:42.490Z,9.68
2019-02-15T09:55:13.090Z,8.83
2019-02-15T09:57:43.192Z,10.43
2019-02-15T10:00:14.238Z,9.05
2019-02-15T10:02:44.380Z,10.80
2019-02-15T10:05:14.752Z,8.73
2019-02-15T10:07:44.942Z,9.33
2019-02-15T10:10:15.044Z,5.80
2019-02-15T10:12:45.496Z,6.40
2019-02-15T10:15:16.064Z,5.85
2019-02-15T10:17:46.157Z,6.60
2019-02-15T10:20:16.323Z,6.05
2019-02-15T10:22:46.482Z,6.40
2019-02-15T10:25:16.593Z,8.35
2019-02-15T10:27:46.765Z,6.95
2019-02-15T10:30:16.922Z,8.50
2019-02-15T10:32:47.008Z,9.83
2019-02-15T10:35:17.207Z,8.95
2019-02-15T10:37:48.926Z,7.85
2019-02-15T10:40:19.109Z,8.05
2019-02-15T10:42:49.241Z,7.45
2019-02-15T10:45:19.330Z,9.35
2019-02-15T10:47:49.670Z,10.28
2019-02-15T10:50:19.828Z,7.47
2019-02-15T10:52:49.954Z,8.75
2019-02-15T10:55:20.110Z,7.17
2019-02-15T10:57:50.315Z,8.70
2019-02-15T11:00:20.931Z,9.60
2019-02-15T11:02:53.797Z,10.28
2019-02-15T11:05:26.727Z,8.33
2019-02-15T11:07:56.874Z,7.75
2019-02-15T11:10:26.989Z,6.80
2019-02-15T11:12:57.107Z,10.45
2019-02-15T11:15:27.321Z,9.80
2019-02-15T11:17:57.420Z,6.35
2019-02-15T11:20:27.542Z,6.28
2019-02-15T11:22:57.748Z,5.00
2019-02-15T11:25:27.855Z,5.45
2019-02-15T11:27:58.244Z,4.70
2019-02-15T11:30:28.448Z,8.48
2019-02-15T11:32:58.601Z,5.80
2019-02-15T11:35:28.865Z,6.15
2019-02-15T11:37:59.008Z,5.05
2019-02-15T11:40:29.105Z,8.48
2019-02-15T11:42:59.226Z,2.80
2019-02-15T11:45:29.421Z,3.05
2019-02-15T11:47:59.739Z,4.25
2019-02-15T11:50:30.215Z,2.37
2019-02-15T11:53:00.606Z,1.67
2019-02-15T11:55:31.669Z,2.42
2019-02-15T11:58:02.079Z,3.70
2019-02-15T12:00:34.249Z,3.50
2019-02-15T12:03:04.869Z,2.17
2019-02-15T12:05:34.994Z,1.65
2019-02-15T12:08:05.198Z,2.10
2019-02-15T12:10:35.335Z,2.83
2019-02-15T12:13:05.463Z,1.92
2019-02-15T12:15:36.509Z,2.27
2019-02-15T12:18:07.214Z,5.12
2019-02-15T12:20:41.204Z,1.77
2019-02-15T12:23:11.379Z,6.08
2019-02-15T12:25:42.348Z,3.50
2019-02-15T12:28:14.986Z,2.02
2019-02-15T12:30:45.113Z,1.50
2019-02-15T12:33:15.363Z,1.95
2019-02-15T12:35:47.787Z,2.05
2019-02-15T12:38:17.913Z,1.90
2019-02-15T12:40:51.571Z,1.90
2019-02-15T12:43:22.787Z,3.65
2019-02-15T12:45:52.891Z,2.70
2019-02-15T12:48:23.110Z,3.60
2019-02-15T12:50:54.197Z,2.75
2019-02-15T12:53:24.530Z,1.35
2019-02-15T12:55:54.694Z,7.33
2019-02-15T12:58:24.773Z,2.47
2019-02-15T13:00:54.989Z,1.72
2019-02-15T13:03:25.197Z,2.55
2019-02-15T13:05:55.282Z,2.10
2019-02-15T13:08:25.420Z,2.58
2019-02-15T13:10:55.717Z,2.80
2019-02-15T13:13:26.920Z,2.35
2019-02-15T13:15:57.180Z,6.47
2019-02-15T13:18:27.288Z,2.85
2019-02-15T13:20:57.407Z,1.85
2019-02-15T13:23:27.600Z,3.55
2019-02-15T13:26:06.342Z,2.65
2019-02-15T13:28:29.572Z,3.05
2019-02-15T13:30:59.708Z,2.95
2019-02-15T13:33:29.820Z,2.62
2019-02-15T13:35:59.931Z,2.67
2019-02-15T13:38:30.067Z,2.10
2019-02-15T13:41:00.215Z,2.92
2019-02-15T13:43:30.735Z,2.55
2019-02-15T13:46:00.914Z,2.08
2019-02-15T13:48:31.020Z,1.62
2019-02-15T13:51:01.151Z,1.80
2019-02-15T13:53:31.478Z,2.58
2019-02-15T13:56:01.597Z,3.55
2019-02-15T13:58:31.729Z,1.95
2019-02-15T14:01:01.859Z,4.80
2019-02-15T14:03:32.836Z,1.77
2019-02-15T14:06:03.249Z,2.45
2019-02-15T14:08:35.339Z,3.10
2019-02-15T14:11:05.219Z,3.42
2019-02-15T14:13:35.297Z,1.80
2019-02-15T14:16:05.678Z,1.45
2019-02-15T14:18:40.191Z,1.42
2019-02-15T14:21:10.417Z,1.55
2019-02-15T14:23:40.718Z,4.72
2019-02-15T14:26:10.810Z,1.35
2019-02-15T14:28:40.949Z,1.90
2019-02-15T14:31:11.103Z,3.40
2019-02-15T14:33:41.246Z,1.45
2019-02-15T14:36:11.467Z,2.73
2019-02-15T14:38:41.589Z,1.50
2019-02-15T14:41:11.717Z,2.60
2019-02-15T14:43:41.971Z,1.00
2019-02-15T14:46:12.099Z,1.27
2019-02-15T14:48:43.211Z,2.73
2019-02-15T14:51:13.410Z,1.83
2019-02-15T14:53:43.680Z,1.90
2019-02-15T14:56:13.844Z,3.53
2019-02-15T14:58:43.924Z,1.20
2019-02-15T15:01:14.096Z,2.30
2019-02-15T15:03:44.230Z,3.50
2019-02-15T15:06:14.479Z,3.60
2019-02-15T15:08:44.620Z,2.03
2019-02-15T15:11:14.877Z,1.37
2019-02-15T15:13:45.059Z,1.50
2019-02-15T15:16:15.147Z,2.80
2019-02-15T15:18:45.273Z,1.07
2019-02-15T15:21:15.446Z,3.57
2019-02-15T15:23:45.633Z,2.45
2019-02-15T15:26:15.770Z,1.22
2019-02-15T15:28:45.998Z,3.37
2019-02-15T15:31:16.096Z,3.27
2019-02-15T15:33:46.257Z,1.52
2019-02-15T15:36:18.279Z,2.20
2019-02-15T15:38:48.368Z,1.90
2019-02-15T15:41:18.546Z,1.22
2019-02-15T15:43:48.731Z,2.65
2019-02-15T15:46:18.854Z,4.65
2019-02-15T15:48:48.961Z,2.47
2019-02-15T15:51:19.145Z,1.65
2019-02-15T15:53:49.411Z,1.62
2019-02-15T15:56:19.523Z,1.17
2019-02-15T15:58:51.551Z,3.58
2019-02-15T16:01:21.452Z,2.40
2019-02-15T16:03:51.750Z,1.52
2019-02-15T16:06:24.505Z,1.47
2019-02-15T16:08:53.985Z,2.80
2019-02-15T16:11:24.123Z,5.58
2019-02-15T16:13:55.249Z,8.65
2019-02-15T16:16:25.414Z,7.40
2019-02-15T16:18:55.604Z,5.20
2019-02-15T16:21:25.764Z,4.42
2019-02-15T16:23:55.883Z,7.03
2019-02-15T16:26:26.092Z,4.97
2019-02-15T16:28:56.227Z,5.15
2019-02-15T16:31:26.331Z,6.47
2019-02-15T16:33:56.654Z,5.40
2019-02-15T16:36:26.752Z,4.40
2019-02-15T16:42:55.222Z,1.92
2019-02-15T16:45:38.815Z,2.30
2019-02-15T16:48:18.852Z,1.45
2019-02-15T16:50:54.345Z,3.40
2019-02-15T16:53:30.331Z,4.75
2019-02-15T16:56:22.726Z,8.83
2019-02-15T16:59:46.244Z,6.03
2019-02-15T17:02:15.332Z,2.65
2019-02-15T17:05:35.379Z,7.95
2019-02-15T17:09:29.441Z,6.10
2019-02-15T17:13:37.684Z,4.62
2019-02-15T17:16:59.172Z,2.47
2019-02-15T17:19:44.820Z,2.35
2019-02-15T17:22:42.125Z,3.55
2019-02-15T17:30:18.103Z,2.62
2019-02-15T17:33:32.479Z,2.00
2019-02-15T17:37:06.502Z,6.62
2019-02-15T17:40:21.276Z,3.62
2019-02-15T17:46:50.653Z,1.45
2019-02-15T17:54:59.065Z,4.10
2019-02-15T18:05:06.954Z,2.58
2019-02-15T18:09:23.888Z,3.52
2019-02-15T18:12:43.934Z,10.85
2019-02-15T18:15:25.458Z,4.28
2019-02-15T18:26:00.792Z,4.85
2019-02-15T18:29:58.169Z,2.00
2019-02-15T18:51:01.928Z,2.47
2019-02-15T18:53:11.097Z,2.47
2019-02-15T19:09:46.466Z,12.18
2019-02-15T19:10:28.962Z,10.25
2019-02-15T19:13:03.881Z,4.50
2019-02-15T20:07:34.273Z,3.83
2019-02-15T20:10:05.200Z,3.45
2019-02-15T20:12:35.379Z,2.45
2019-02-15T20:15:05.652Z,2.75
2019-02-15T20:17:35.874Z,6.17
2019-02-15T20:20:06.804Z,6.17
2019-02-15T20:22:37.062Z,5.33
2019-02-15T20:25:08.053Z,2.75
2019-02-15T20:27:38.262Z,3.08
2019-02-15T20:30:11.475Z,4.10
2019-02-15T20:32:41.710Z,2.45
2019-02-15T20:35:13.498Z,3.30
2019-02-15T20:37:43.905Z,3.20
2019-02-15T20:40:14.254Z,2.67
2019-02-15T20:42:44.413Z,3.37
2019-02-15T20:45:17.836Z,3.70
2019-02-15T20:47:48.131Z,2.62
2019-02-15T20:50:18.591Z,3.75
2019-02-15T20:52:48.891Z,2.65
2019-02-15T20:55:19.292Z,2.65
2019-02-15T20:57:49.758Z,3.98
2019-02-15T21:00:22.496Z,4.78
2019-02-15T21:02:52.700Z,4.05
2019-02-15T21:05:22.900Z,6.72
2019-02-15T21:07:53.082Z,4.45
2019-02-15T21:10:23.258Z,3.92
2019-02-15T21:12:53.445Z,6.08
2019-02-15T21:15:24.403Z,3.52
2019-02-15T21:17:54.673Z,3.90
2019-02-15T21:20:24.882Z,4.45
2019-02-15T21:22:55.121Z,3.40
2019-02-15T21:25:27.647Z,5.78
2019-02-15T21:28:05.175Z,5.15
2019-02-15T21:30:35.325Z,3.10
2019-02-15T21:33:05.566Z,3.95
2019-02-15T21:35:35.905Z,2.70
2019-02-15T21:38:06.074Z,4.37
2019-02-15T21:40:36.295Z,4.33
2019-02-15T21:43:06.519Z,4.10
2019-02-15T21:45:36.703Z,5.72
2019-02-15T21:48:06.850Z,5.20
2019-02-15T21:50:37.029Z,6.75
2019-02-15T21:53:07.164Z,6.45
2019-02-15T21:55:37.632Z,4.15
2019-02-15T21:58:07.774Z,4.30
2019-02-15T22:00:38.005Z,3.58
2019-02-15T22:03:09.907Z,3.33
2019-02-15T22:05:40.061Z,4.55
2019-02-15T22:08:10.231Z,5.97
2019-02-15T22:10:40.388Z,6.25
2019-02-15T22:13:11.036Z,7.83
2019-02-15T22:15:41.200Z,4.78
2019-02-15T22:18:11.475Z,4.97
2019-02-15T22:20:42.111Z,2.92
2019-02-15T22:23:12.323Z,5.12
2019-02-15T22:25:42.602Z,4.72
2019-02-15T22:28:12.789Z,3.52
2019-02-15T22:30:48.186Z,4.10
2019-02-15T22:33:18.691Z,4.10
2019-02-15T22:35:49.771Z,5.95
2019-02-15T22:38:20.855Z,4.85
2019-02-15T22:40:55.618Z,6.72
2019-02-15T22:43:25.827Z,5.12
2019-02-15T22:45:55.996Z,9.88
2019-02-15T22:48:26.200Z,5.40
2019-02-15T22:50:56.755Z,7.58
2019-02-15T22:53:28.926Z,8.50
2019-02-15T22:55:59.083Z,5.12
2019-02-15T22:58:30.582Z,7.00
2019-02-15T23:01:14.149Z,6.97
2019-02-15T23:03:46.241Z,7.28
2019-02-15T23:06:16.929Z,6.08
2019-02-15T23:08:47.449Z,5.35
2019-02-15T23:11:18.167Z,4.62
2019-02-15T23:13:48.455Z,4.90
2019-02-15T23:16:21.350Z,5.62
2019-02-15T23:18:55.558Z,5.85
2019-02-15T23:21:26.207Z,4.70
2019-02-15T23:24:00.674Z,5.45
2019-02-15T23:26:32.056Z,4.70
2019-02-15T23:29:02.245Z,7.10
2019-02-15T23:31:35.152Z,4.87
2019-02-15T23:34:07.666Z,6.25
2019-02-15T23:36:38.412Z,5.72
2019-02-15T23:39:09.390Z,5.33
2019-02-15T23:41:41.869Z,5.37
2019-02-15T23:44:12.606Z,6.75
2019-02-15T23:46:45.299Z,4.90
2019-02-15T23:49:17.473Z,5.35
2019-02-15T23:51:58.260Z,4.67
2019-02-15T23:54:28.437Z,7.08
2019-02-15T23:56:58.601Z,4.95
2019-02-15T23:59:28.767Z,5.80
